Pembroke, North Carolina
Current Conditions -  °F | °C
As of 2:54 PM on Thursday 23 Oct 2014 (Local Time) from KLBT Reporting Station
Clear Clear  
Wind Chill: 70°   Ceiling: Unl
Heat Index: 70°   Visibility: 10mi
Dew Point: 41°   Wind: 6mph
Humidity: 35%   Direction: 330°NNW
Pressure: 29.96"   Gusts: NA
Location:  34.68°N, 79.2°W
Report Text: KLBT 231854Z AUTO 33005KT 10SM CLR 21/05 A2996 RMK AO2 SLP143 T02110050
Loading
Personal Weather Stations






























Interactive Weather Map New forecast layout! Learn more

10-Day Weather Forecast

Advertisements
Track Severe Weather on mobile